sensor_id;sensor_type;location;lat;lon;timestamp;pressure;altitude;pressure_sealevel;temperature;humidity
74960;BME280;63518;49.572;1.106;2022-12-16T00:01:46;99061.00;;;-1.80;76.31
74960;BME280;63518;49.572;1.106;2022-12-16T00:04:26;99062.22;;;-1.94;76.29
74960;BME280;63518;49.572;1.106;2022-12-16T00:06:53;99063.41;;;-1.90;76.69
74960;BME280;63518;49.572;1.106;2022-12-16T00:09:30;99064.81;;;-1.87;76.53
74960;BME280;63518;49.572;1.106;2022-12-16T00:11:58;99065.06;;;-1.89;76.35
74960;BME280;63518;49.572;1.106;2022-12-16T00:14:38;99058.75;;;-1.83;76.12
74960;BME280;63518;49.572;1.106;2022-12-16T00:17:12;99063.09;;;-1.82;76.16
74960;BME280;63518;49.572;1.106;2022-12-16T00:19:39;99059.41;;;-1.87;75.89
74960;BME280;63518;49.572;1.106;2022-12-16T00:22:09;99058.09;;;-1.78;77.11
74960;BME280;63518;49.572;1.106;2022-12-16T00:25:01;99070.56;;;-1.77;75.68
74960;BME280;63518;49.572;1.106;2022-12-16T00:27:31;99069.81;;;-1.84;75.76
74960;BME280;63518;49.572;1.106;2022-12-16T00:30:00;99064.53;;;-1.79;76.06
74960;BME280;63518;49.572;1.106;2022-12-16T00:32:30;99067.91;;;-1.84;76.15
74960;BME280;63518;49.572;1.106;2022-12-16T00:35:00;99069.41;;;-1.88;76.69
74960;BME280;63518;49.572;1.106;2022-12-16T00:37:27;99056.28;;;-1.84;76.46
74960;BME280;63518;49.572;1.106;2022-12-16T00:40:10;99071.16;;;-1.75;76.61
74960;BME280;63518;49.572;1.106;2022-12-16T00:42:37;99062.44;;;-1.77;77.36
74960;BME280;63518;49.572;1.106;2022-12-16T00:45:05;99068.81;;;-1.72;76.32
74960;BME280;63518;49.572;1.106;2022-12-16T00:47:38;99074.38;;;-1.67;77.23
74960;BME280;63518;49.572;1.106;2022-12-16T00:50:27;99068.44;;;-1.57;76.22
74960;BME280;63518;49.572;1.106;2022-12-16T00:52:59;99064.38;;;-1.66;76.41
74960;BME280;63518;49.572;1.106;2022-12-16T00:55:30;99072.13;;;-1.51;77.22
74960;BME280;63518;49.572;1.106;2022-12-16T00:58:20;99068.59;;;-1.52;76.74
74960;BME280;63518;49.572;1.106;2022-12-16T01:01:00;99068.44;;;-1.57;76.88
74960;BME280;63518;49.572;1.106;2022-12-16T01:03:48;99067.47;;;-1.62;74.22
74960;BME280;63518;49.572;1.106;2022-12-16T01:06:37;99072.66;;;-1.61;75.31
74960;BME280;63518;49.572;1.106;2022-12-16T01:09:27;99079.13;;;-1.62;75.27
74960;BME280;63518;49.572;1.106;2022-12-16T01:11:56;99078.72;;;-1.66;73.82
74960;BME280;63518;49.572;1.106;2022-12-16T01:14:33;99073.63;;;-1.74;74.25
74960;BME280;63518;49.572;1.106;2022-12-16T01:17:14;99077.75;;;-1.71;74.69
74960;BME280;63518;49.572;1.106;2022-12-16T01:19:43;99084.91;;;-1.58;75.71
74960;BME280;63518;49.572;1.106;2022-12-16T01:22:42;99087.56;;;-1.40;76.83
74960;BME280;63518;49.572;1.106;2022-12-16T01:25:14;99092.66;;;-1.14;75.68
74960;BME280;63518;49.572;1.106;2022-12-16T01:28:11;99087.00;;;-1.12;76.46
74960;BME280;63518;49.572;1.106;2022-12-16T01:31:00;99093.16;;;-1.05;76.03
74960;BME280;63518;49.572;1.106;2022-12-16T01:33:39;99088.34;;;-1.03;77.64
74960;BME280;63518;49.572;1.106;2022-12-16T01:36:14;99096.72;;;-0.93;76.70
74960;BME280;63518;49.572;1.106;2022-12-16T01:39:12;99094.22;;;-1.06;75.91
74960;BME280;63518;49.572;1.106;2022-12-16T01:41:39;99104.16;;;-1.18;76.71
74960;BME280;63518;49.572;1.106;2022-12-16T01:44:17;99105.91;;;-1.24;74.84
74960;BME280;63518;49.572;1.106;2022-12-16T01:46:44;99105.91;;;-1.24;75.72
74960;BME280;63518;49.572;1.106;2022-12-16T01:49:19;99111.94;;;-1.22;76.09
74960;BME280;63518;49.572;1.106;2022-12-16T01:51:50;99114.00;;;-1.05;75.78
74960;BME280;63518;49.572;1.106;2022-12-16T01:54:23;99112.56;;;-1.08;77.19
74960;BME280;63518;49.572;1.106;2022-12-16T01:56:55;99125.91;;;-1.06;76.21
74960;BME280;63518;49.572;1.106;2022-12-16T01:59:24;99130.34;;;-1.12;76.27
74960;BME280;63518;49.572;1.106;2022-12-16T02:01:51;99129.75;;;-1.14;78.24
74960;BME280;63518;49.572;1.106;2022-12-16T02:04:19;99134.75;;;-1.29;79.35
74960;BME280;63518;49.572;1.106;2022-12-16T02:06:46;99137.38;;;-0.93;76.51
74960;BME280;63518;49.572;1.106;2022-12-16T02:09:16;99135.59;;;-0.99;74.55
74960;BME280;63518;49.572;1.106;2022-12-16T02:11:48;99138.94;;;-1.15;74.05
74960;BME280;63518;49.572;1.106;2022-12-16T02:17:13;99127.38;;;-1.59;72.03
74960;BME280;63518;49.572;1.106;2022-12-16T02:32:57;99144.34;;;-1.15;77.72
74960;BME280;63518;49.572;1.106;2022-12-16T02:38:10;99147.31;;;-1.53;79.92
74960;BME280;63518;49.572;1.106;2022-12-16T02:46:13;99155.94;;;-1.26;80.56
74960;BME280;63518;49.572;1.106;2022-12-16T02:48:44;99155.03;;;-1.20;79.96
74960;BME280;63518;49.572;1.106;2022-12-16T02:51:14;99153.75;;;-0.99;80.03
74960;BME280;63518;49.572;1.106;2022-12-16T02:53:52;99154.44;;;-0.62;77.72
74960;BME280;63518;49.572;1.106;2022-12-16T02:56:40;99154.00;;;-0.59;75.66
74960;BME280;63518;49.572;1.106;2022-12-16T03:02:07;99163.56;;;-0.87;78.19
74960;BME280;63518;49.572;1.106;2022-12-16T03:04:40;99170.38;;;-0.54;77.07
74960;BME280;63518;49.572;1.106;2022-12-16T03:07:10;99162.72;;;-0.57;77.02
74960;BME280;63518;49.572;1.106;2022-12-16T03:09:43;99167.50;;;-0.71;76.50
74960;BME280;63518;49.572;1.106;2022-12-16T03:12:15;99173.75;;;-0.70;75.07
74960;BME280;63518;49.572;1.106;2022-12-16T03:14:55;99170.81;;;-0.69;75.77
74960;BME280;63518;49.572;1.106;2022-12-16T03:17:22;99180.47;;;-0.73;75.02
74960;BME280;63518;49.572;1.106;2022-12-16T03:20:15;99185.66;;;-0.71;76.64
74960;BME280;63518;49.572;1.106;2022-12-16T03:22:45;99191.50;;;-0.56;77.04
74960;BME280;63518;49.572;1.106;2022-12-16T03:25:14;99196.72;;;-0.73;77.48
74960;BME280;63518;49.572;1.106;2022-12-16T03:30:15;99193.50;;;-0.82;77.06
74960;BME280;63518;49.572;1.106;2022-12-16T03:36:19;99185.09;;;-0.62;76.56
74960;BME280;63518;49.572;1.106;2022-12-16T03:38:45;99212.19;;;-0.62;77.52
74960;BME280;63518;49.572;1.106;2022-12-16T03:41:15;99197.28;;;-0.52;77.37
74960;BME280;63518;49.572;1.106;2022-12-16T03:46:26;99202.06;;;-0.66;78.81
74960;BME280;63518;49.572;1.106;2022-12-16T03:48:55;99192.81;;;-1.07;80.03
74960;BME280;63518;49.572;1.106;2022-12-16T03:51:25;99203.31;;;-0.69;78.63
74960;BME280;63518;49.572;1.106;2022-12-16T03:53:57;99215.47;;;-0.41;77.89
74960;BME280;63518;49.572;1.106;2022-12-16T03:56:31;99195.50;;;-0.59;77.01
74960;BME280;63518;49.572;1.106;2022-12-16T03:59:06;99220.25;;;-0.55;76.89
74960;BME280;63518;49.572;1.106;2022-12-16T04:01:36;99210.56;;;-0.63;77.28
74960;BME280;63518;49.572;1.106;2022-12-16T04:04:04;99218.31;;;-0.66;75.53
74960;BME280;63518;49.572;1.106;2022-12-16T04:06:31;99217.72;;;-0.68;75.29
74960;BME280;63518;49.572;1.106;2022-12-16T04:09:03;99223.41;;;-0.88;76.90
74960;BME280;63518;49.572;1.106;2022-12-16T04:11:31;99205.28;;;-1.06;78.47
74960;BME280;63518;49.572;1.106;2022-12-16T04:14:17;99232.31;;;-0.69;78.43
74960;BME280;63518;49.572;1.106;2022-12-16T04:17:11;99184.94;;;-0.97;77.69
74960;BME280;63518;49.572;1.106;2022-12-16T04:19:59;99221.03;;;-0.85;77.90
74960;BME280;63518;49.572;1.106;2022-12-16T04:22:47;99247.91;;;-0.65;77.48
74960;BME280;63518;49.572;1.106;2022-12-16T04:25:35;99238.94;;;-0.65;75.92
74960;BME280;63518;49.572;1.106;2022-12-16T04:28:10;99241.59;;;-0.77;75.49
74960;BME280;63518;49.572;1.106;2022-12-16T04:30:50;99240.34;;;-1.11;75.33
74960;BME280;63518;49.572;1.106;2022-12-16T04:33:19;99232.50;;;-0.83;77.54
74960;BME280;63518;49.572;1.106;2022-12-16T04:36:05;99251.03;;;-0.98;76.15
74960;BME280;63518;49.572;1.106;2022-12-16T04:38:58;99245.38;;;-0.96;76.64
74960;BME280;63518;49.572;1.106;2022-12-16T04:41:52;99252.00;;;-1.11;75.89
74960;BME280;63518;49.572;1.106;2022-12-16T04:44:42;99241.59;;;-1.32;75.27
74960;BME280;63518;49.572;1.106;2022-12-16T04:47:28;99249.81;;;-1.20;76.68
74960;BME280;63518;49.572;1.106;2022-12-16T04:50:28;99241.09;;;-1.04;78.35
74960;BME280;63518;49.572;1.106;2022-12-16T04:53:14;99254.34;;;-0.96;78.10
74960;BME280;63518;49.572;1.106;2022-12-16T04:56:00;99242.44;;;-0.95;78.94
74960;BME280;63518;49.572;1.106;2022-12-16T04:58:52;99242.84;;;-0.91;76.37
74960;BME280;63518;49.572;1.106;2022-12-16T05:01:50;99256.34;;;-0.73;77.89
74960;BME280;63518;49.572;1.106;2022-12-16T05:04:38;99254.38;;;-0.66;77.95
74960;BME280;63518;49.572;1.106;2022-12-16T05:07:28;99266.94;;;-0.53;77.69
74960;BME280;63518;49.572;1.106;2022-12-16T05:10:16;99274.78;;;-0.63;78.58
74960;BME280;63518;49.572;1.106;2022-12-16T05:13:01;99280.16;;;-0.45;78.55
74960;BME280;63518;49.572;1.106;2022-12-16T05:16:05;99284.94;;;-0.59;76.44
74960;BME280;63518;49.572;1.106;2022-12-16T05:18:51;99286.00;;;-0.78;76.27
74960;BME280;63518;49.572;1.106;2022-12-16T05:21:40;99290.97;;;-0.93;77.63
74960;BME280;63518;49.572;1.106;2022-12-16T05:24:27;99297.81;;;-0.72;78.34
74960;BME280;63518;49.572;1.106;2022-12-16T05:27:20;99299.78;;;-0.79;79.25
74960;BME280;63518;49.572;1.106;2022-12-16T05:30:09;99293.16;;;-0.65;78.38
74960;BME280;63518;49.572;1.106;2022-12-16T05:32:59;99294.75;;;-0.76;77.73
74960;BME280;63518;49.572;1.106;2022-12-16T05:35:48;99282.91;;;-0.63;78.84
74960;BME280;63518;49.572;1.106;2022-12-16T05:38:37;99282.91;;;-0.63;77.95
74960;BME280;63518;49.572;1.106;2022-12-16T05:41:25;99289.47;;;-0.71;76.83
74960;BME280;63518;49.572;1.106;2022-12-16T05:44:13;99282.56;;;-1.03;74.54
74960;BME280;63518;49.572;1.106;2022-12-16T05:47:03;99290.97;;;-1.55;75.36
74960;BME280;63518;49.572;1.106;2022-12-16T05:49:52;99302.75;;;-1.68;75.50
74960;BME280;63518;49.572;1.106;2022-12-16T05:52:48;99298.75;;;-1.40;76.11
74960;BME280;63518;49.572;1.106;2022-12-16T05:55:47;99296.91;;;-1.21;79.26
74960;BME280;63518;49.572;1.106;2022-12-16T05:58:35;99293.19;;;-0.84;78.38
74960;BME280;63518;49.572;1.106;2022-12-16T06:01:23;99288.06;;;-0.92;78.19
74960;BME280;63518;49.572;1.106;2022-12-16T06:04:16;99309.34;;;-0.77;78.35
74960;BME280;63518;49.572;1.106;2022-12-16T06:07:17;99316.19;;;-0.93;79.04
74960;BME280;63518;49.572;1.106;2022-12-16T06:10:06;99317.75;;;-0.85;78.57
74960;BME280;63518;49.572;1.106;2022-12-16T06:12:52;99310.25;;;-0.83;78.01
74960;BME280;63518;49.572;1.106;2022-12-16T06:15:39;99308.53;;;-0.96;78.17
74960;BME280;63518;49.572;1.106;2022-12-16T06:18:41;99318.91;;;-0.74;78.10
74960;BME280;63518;49.572;1.106;2022-12-16T06:21:27;99313.69;;;-0.94;77.35
74960;BME280;63518;49.572;1.106;2022-12-16T06:24:18;99333.13;;;-0.97;78.37
74960;BME280;63518;49.572;1.106;2022-12-16T06:27:07;99320.72;;;-1.05;77.43
74960;BME280;63518;49.572;1.106;2022-12-16T06:29:56;99331.06;;;-1.02;78.10
74960;BME280;63518;49.572;1.106;2022-12-16T06:32:54;99311.53;;;-1.04;76.82
74960;BME280;63518;49.572;1.106;2022-12-16T06:35:41;99345.84;;;-0.98;78.19
74960;BME280;63518;49.572;1.106;2022-12-16T06:38:27;99359.53;;;-1.36;80.66
74960;BME280;63518;49.572;1.106;2022-12-16T06:41:15;99354.44;;;-2.14;80.60
74960;BME280;63518;49.572;1.106;2022-12-16T06:44:02;99355.41;;;-1.39;78.66
74960;BME280;63518;49.572;1.106;2022-12-16T06:46:59;99352.28;;;-1.42;76.22
74960;BME280;63518;49.572;1.106;2022-12-16T06:49:58;99367.47;;;-1.41;74.24
74960;BME280;63518;49.572;1.106;2022-12-16T06:52:49;99363.31;;;-1.69;73.65
74960;BME280;63518;49.572;1.106;2022-12-16T06:55:34;99367.59;;;-1.54;76.90
74960;BME280;63518;49.572;1.106;2022-12-16T06:58:36;99360.72;;;-1.57;76.37
74960;BME280;63518;49.572;1.106;2022-12-16T07:01:24;99357.22;;;-1.64;77.82
74960;BME280;63518;49.572;1.106;2022-12-16T07:04:13;99370.06;;;-1.53;80.35
74960;BME280;63518;49.572;1.106;2022-12-16T07:06:58;99383.91;;;-1.36;80.17
74960;BME280;63518;49.572;1.106;2022-12-16T07:09:52;99385.19;;;-1.39;78.91
74960;BME280;63518;49.572;1.106;2022-12-16T07:13:03;99384.19;;;-1.76;79.46
74960;BME280;63518;49.572;1.106;2022-12-16T07:15:47;99400.78;;;-1.72;80.57
74960;BME280;63518;49.572;1.106;2022-12-16T07:18:33;99408.59;;;-1.89;81.01
74960;BME280;63518;49.572;1.106;2022-12-16T07:21:20;99389.84;;;-1.84;80.80
74960;BME280;63518;49.572;1.106;2022-12-16T07:24:12;99393.06;;;-1.37;77.22
74960;BME280;63518;49.572;1.106;2022-12-16T07:26:59;99393.66;;;-1.35;77.48
74960;BME280;63518;49.572;1.106;2022-12-16T07:29:45;99416.25;;;-1.48;75.56
74960;BME280;63518;49.572;1.106;2022-12-16T07:32:37;99420.53;;;-1.65;74.99
74960;BME280;63518;49.572;1.106;2022-12-16T07:35:35;99425.81;;;-1.77;76.02
74960;BME280;63518;49.572;1.106;2022-12-16T07:38:29;99427.53;;;-1.51;77.27
74960;BME280;63518;49.572;1.106;2022-12-16T07:45:12;99417.28;;;-1.17;76.67
74960;BME280;63518;49.572;1.106;2022-12-16T07:47:58;99439.75;;;-1.42;73.23
74960;BME280;63518;49.572;1.106;2022-12-16T07:50:56;99411.41;;;-2.02;73.35
74960;BME280;63518;49.572;1.106;2022-12-16T07:57:34;99447.19;;;-1.62;78.11
74960;BME280;63518;49.572;1.106;2022-12-16T08:01:21;99427.47;;;-1.76;76.32
74960;BME280;63518;49.572;1.106;2022-12-16T08:04:14;99443.00;;;-1.64;74.96
74960;BME280;63518;49.572;1.106;2022-12-16T08:07:14;99470.28;;;-1.66;74.32
74960;BME280;63518;49.572;1.106;2022-12-16T08:10:02;99438.22;;;-2.01;74.22
74960;BME280;63518;49.572;1.106;2022-12-16T08:13:10;99480.66;;;-2.01;73.58
74960;BME280;63518;49.572;1.106;2022-12-16T08:16:15;99470.81;;;-1.89;75.04
74960;BME280;63518;49.572;1.106;2022-12-16T08:19:04;99475.50;;;-1.71;76.41
74960;BME280;63518;49.572;1.106;2022-12-16T08:22:08;99470.16;;;-1.78;75.34
74960;BME280;63518;49.572;1.106;2022-12-16T08:25:07;99484.91;;;-1.74;79.14
74960;BME280;63518;49.572;1.106;2022-12-16T08:31:55;99506.28;;;-0.96;75.74
74960;BME280;63518;49.572;1.106;2022-12-16T08:34:53;99490.75;;;-1.39;73.30
74960;BME280;63518;49.572;1.106;2022-12-16T08:38:05;99504.91;;;-1.36;75.57
74960;BME280;63518;49.572;1.106;2022-12-16T08:40:53;99503.09;;;-1.18;76.96
74960;BME280;63518;49.572;1.106;2022-12-16T08:44:03;99528.72;;;-0.82;78.90
74960;BME280;63518;49.572;1.106;2022-12-16T08:47:53;99500.72;;;-0.76;74.55
74960;BME280;63518;49.572;1.106;2022-12-16T08:50:53;99500.22;;;-0.66;75.64
74960;BME280;63518;49.572;1.106;2022-12-16T08:54:14;99525.00;;;-0.63;77.88
74960;BME280;63518;49.572;1.106;2022-12-16T08:57:00;99531.69;;;-0.40;77.84
74960;BME280;63518;49.572;1.106;2022-12-16T09:00:06;99548.69;;;-0.08;76.23
74960;BME280;63518;49.572;1.106;2022-12-16T09:02:56;99537.22;;;-0.29;76.42
74960;BME280;63518;49.572;1.106;2022-12-16T09:06:05;99552.28;;;-0.14;76.56
74960;BME280;63518;49.572;1.106;2022-12-16T09:09:16;99561.06;;;-0.37;78.22
74960;BME280;63518;49.572;1.106;2022-12-16T09:12:44;99526.91;;;-0.45;77.30
74960;BME280;63518;49.572;1.106;2022-12-16T09:16:08;99499.94;;;-0.58;77.90
74960;BME280;63518;49.572;1.106;2022-12-16T09:19:14;99556.38;;;0.32;75.60
74960;BME280;63518;49.572;1.106;2022-12-16T09:22:11;99562.34;;;0.40;75.95
74960;BME280;63518;49.572;1.106;2022-12-16T09:25:29;99476.25;;;0.11;74.99
74960;BME280;63518;49.572;1.106;2022-12-16T09:29:22;99514.78;;;0.68;73.17
74960;BME280;63518;49.572;1.106;2022-12-16T09:33:04;99529.44;;;0.48;73.67
74960;BME280;63518;49.572;1.106;2022-12-16T09:35:53;99539.22;;;0.98;74.12
74960;BME280;63518;49.572;1.106;2022-12-16T09:40:07;99555.97;;;0.65;73.86
74960;BME280;63518;49.572;1.106;2022-12-16T09:50:33;99523.81;;;0.32;75.18
74960;BME280;63518;49.572;1.106;2022-12-16T09:57:37;99608.31;;;0.90;74.35
74960;BME280;63518;49.572;1.106;2022-12-16T10:00:26;99598.47;;;1.19;74.50
74960;BME280;63518;49.572;1.106;2022-12-16T10:03:41;99530.69;;;0.64;74.29
74960;BME280;63518;49.572;1.106;2022-12-16T10:14:03;99624.25;;;1.47;73.30
74960;BME280;63518;49.572;1.106;2022-12-16T10:17:32;99621.88;;;1.20;74.20
74960;BME280;63518;49.572;1.106;2022-12-16T10:27:48;99624.53;;;1.80;73.17
74960;BME280;63518;49.572;1.106;2022-12-16T10:30:46;99632.94;;;2.37;71.63
74960;BME280;63518;49.572;1.106;2022-12-16T10:34:16;99591.41;;;1.95;70.28
74960;BME280;63518;49.572;1.106;2022-12-16T10:37:53;99608.91;;;2.22;69.83
74960;BME280;63518;49.572;1.106;2022-12-16T10:40:42;99630.03;;;3.19;68.52
74960;BME280;63518;49.572;1.106;2022-12-16T10:43:50;99627.25;;;2.39;69.49
74960;BME280;63518;49.572;1.106;2022-12-16T10:46:39;99617.22;;;2.28;69.64
74960;BME280;63518;49.572;1.106;2022-12-16T10:49:34;99621.69;;;4.21;74.87
74960;BME280;63518;49.572;1.106;2022-12-16T10:52:20;99626.84;;;3.84;66.41
74960;BME280;63518;49.572;1.106;2022-12-16T10:55:14;99636.31;;;3.48;66.36
74960;BME280;63518;49.572;1.106;2022-12-16T10:58:51;99626.63;;;3.00;66.50
74960;BME280;63518;49.572;1.106;2022-12-16T11:01:32;99628.41;;;4.14;72.13
74960;BME280;63518;49.572;1.106;2022-12-16T11:04:35;99633.81;;;2.90;66.52
74960;BME280;63518;49.572;1.106;2022-12-16T11:10:31;99632.53;;;3.09;72.90
74960;BME280;63518;49.572;1.106;2022-12-16T11:13:35;99644.66;;;3.01;70.64
74960;BME280;63518;49.572;1.106;2022-12-16T11:16:26;99636.53;;;3.18;67.71
74960;BME280;63518;49.572;1.106;2022-12-16T11:19:23;99626.84;;;2.70;68.02
74960;BME280;63518;49.572;1.106;2022-12-16T11:22:27;99643.66;;;2.79;67.82
74960;BME280;63518;49.572;1.106;2022-12-16T11:25:20;99636.13;;;3.26;67.71
74960;BME280;63518;49.572;1.106;2022-12-16T11:28:20;99636.81;;;3.33;66.21
74960;BME280;63518;49.572;1.106;2022-12-16T11:31:09;99615.16;;;3.55;69.82
74960;BME280;63518;49.572;1.106;2022-12-16T11:34:01;99631.41;;;3.50;73.25
74960;BME280;63518;49.572;1.106;2022-12-16T11:36:50;99615.50;;;2.62;68.05
74960;BME280;63518;49.572;1.106;2022-12-16T11:39:50;99633.19;;;3.28;68.59
74960;BME280;63518;49.572;1.106;2022-12-16T11:42:36;99619.78;;;3.88;66.39
74960;BME280;63518;49.572;1.106;2022-12-16T11:45:37;99627.09;;;3.37;66.60
74960;BME280;63518;49.572;1.106;2022-12-16T11:48:51;99625.09;;;3.61;65.16
74960;BME280;63518;49.572;1.106;2022-12-16T11:52:09;99605.91;;;3.28;64.02
74960;BME280;63518;49.572;1.106;2022-12-16T11:55:24;99574.34;;;2.75;66.39
74960;BME280;63518;49.572;1.106;2022-12-16T11:58:48;99635.97;;;3.45;65.19
74960;BME280;63518;49.572;1.106;2022-12-16T12:09:53;99636.84;;;3.79;67.14
74960;BME280;63518;49.572;1.106;2022-12-16T12:13:50;99643.66;;;4.48;72.37
74960;BME280;63518;49.572;1.106;2022-12-16T12:29:03;99653.59;;;5.42;64.31
74960;BME280;63518;49.572;1.106;2022-12-16T12:32:14;99656.03;;;6.72;70.54
74960;BME280;63518;49.572;1.106;2022-12-16T12:43:39;99645.44;;;3.87;63.86
74960;BME280;63518;49.572;1.106;2022-12-16T12:50:24;99635.47;;;4.92;61.55
74960;BME280;63518;49.572;1.106;2022-12-16T12:57:29;99639.94;;;4.98;65.53
74960;BME280;63518;49.572;1.106;2022-12-16T13:00:49;99640.47;;;4.18;62.41
74960;BME280;63518;49.572;1.106;2022-12-16T13:07:52;99623.28;;;3.84;62.29
74960;BME280;63518;49.572;1.106;2022-12-16T13:11:10;99649.03;;;4.21;61.75
74960;BME280;63518;49.572;1.106;2022-12-16T13:25:48;99649.00;;;4.60;65.61
74960;BME280;63518;49.572;1.106;2022-12-16T13:29:15;99663.28;;;5.82;64.65
74960;BME280;63518;49.572;1.106;2022-12-16T13:38:27;99666.72;;;4.02;61.83
74960;BME280;63518;49.572;1.106;2022-12-16T13:48:48;99667.88;;;4.23;61.54
74960;BME280;63518;49.572;1.106;2022-12-16T13:52:00;99671.19;;;3.91;61.11
74960;BME280;63518;49.572;1.106;2022-12-16T13:58:51;99668.91;;;3.55;63.32
74960;BME280;63518;49.572;1.106;2022-12-16T14:04:38;99698.00;;;3.49;62.69
74960;BME280;63518;49.572;1.106;2022-12-16T14:07:43;99693.97;;;3.40;62.52
74960;BME280;63518;49.572;1.106;2022-12-16T14:14:55;99683.09;;;3.69;62.97
74960;BME280;63518;49.572;1.106;2022-12-16T14:18:20;99699.94;;;3.65;62.97
74960;BME280;63518;49.572;1.106;2022-12-16T14:25:25;99692.75;;;3.59;62.53
74960;BME280;63518;49.572;1.106;2022-12-16T14:32:40;99687.94;;;3.38;63.74
74960;BME280;63518;49.572;1.106;2022-12-16T14:44:19;99733.09;;;3.57;62.03
74960;BME280;63518;49.572;1.106;2022-12-16T14:47:35;99733.97;;;3.34;62.55
74960;BME280;63518;49.572;1.106;2022-12-16T14:50:37;99735.97;;;3.39;65.41
74960;BME280;63518;49.572;1.106;2022-12-16T14:57:20;99751.13;;;3.06;66.31
74960;BME280;63518;49.572;1.106;2022-12-16T15:04:38;99753.63;;;2.38;67.72
74960;BME280;63518;49.572;1.106;2022-12-16T15:07:32;99753.53;;;2.33;67.48
74960;BME280;63518;49.572;1.106;2022-12-16T15:10:25;99754.34;;;2.33;67.62
74960;BME280;63518;49.572;1.106;2022-12-16T15:13:39;99769.81;;;2.09;67.36
74960;BME280;63518;49.572;1.106;2022-12-16T15:16:36;99766.72;;;2.06;68.08
74960;BME280;63518;49.572;1.106;2022-12-16T15:19:47;99774.78;;;2.12;67.45
74960;BME280;63518;49.572;1.106;2022-12-16T15:22:47;99775.63;;;2.13;67.70
74960;BME280;63518;49.572;1.106;2022-12-16T15:25:48;99765.56;;;2.13;66.30
74960;BME280;63518;49.572;1.106;2022-12-16T15:28:42;99776.63;;;2.00;67.72
74960;BME280;63518;49.572;1.106;2022-12-16T15:31:38;99784.38;;;2.15;68.53
74960;BME280;63518;49.572;1.106;2022-12-16T15:34:48;99781.41;;;2.05;67.60
74960;BME280;63518;49.572;1.106;2022-12-16T15:37:53;99790.06;;;2.13;66.55
74960;BME280;63518;49.572;1.106;2022-12-16T15:40:43;99776.47;;;1.83;67.66
74960;BME280;63518;49.572;1.106;2022-12-16T15:43:43;99793.00;;;1.70;68.58
74960;BME280;63518;49.572;1.106;2022-12-16T15:46:38;99790.56;;;1.80;68.19
74960;BME280;63518;49.572;1.106;2022-12-16T15:49:37;99799.13;;;1.65;67.96
74960;BME280;63518;49.572;1.106;2022-12-16T15:52:42;99808.81;;;1.61;68.30
74960;BME280;63518;49.572;1.106;2022-12-16T15:55:43;99797.09;;;1.42;69.40
74960;BME280;63518;49.572;1.106;2022-12-16T15:59:14;99822.53;;;1.85;69.38
74960;BME280;63518;49.572;1.106;2022-12-16T16:02:29;99828.50;;;1.75;68.74
74960;BME280;63518;49.572;1.106;2022-12-16T16:05:24;99812.22;;;1.57;69.22
74960;BME280;63518;49.572;1.106;2022-12-16T16:08:25;99838.50;;;1.45;69.80
74960;BME280;63518;49.572;1.106;2022-12-16T16:11:11;99829.22;;;1.16;70.37
74960;BME280;63518;49.572;1.106;2022-12-16T16:13:58;99842.22;;;1.32;70.25
74960;BME280;63518;49.572;1.106;2022-12-16T16:16:54;99852.09;;;1.45;70.01
74960;BME280;63518;49.572;1.106;2022-12-16T16:19:42;99840.41;;;1.07;71.10
74960;BME280;63518;49.572;1.106;2022-12-16T16:22:36;99842.38;;;1.19;70.11
74960;BME280;63518;49.572;1.106;2022-12-16T16:25:24;99847.44;;;1.15;70.89
74960;BME280;63518;49.572;1.106;2022-12-16T16:28:11;99853.19;;;1.25;70.50
74960;BME280;63518;49.572;1.106;2022-12-16T16:31:00;99854.50;;;0.98;70.93
74960;BME280;63518;49.572;1.106;2022-12-16T16:33:55;99853.25;;;1.19;71.63
74960;BME280;63518;49.572;1.106;2022-12-16T16:36:40;99861.47;;;1.12;71.50
74960;BME280;63518;49.572;1.106;2022-12-16T16:39:33;99852.22;;;0.95;72.54
74960;BME280;63518;49.572;1.106;2022-12-16T16:42:27;99856.09;;;0.80;72.30
74960;BME280;63518;49.572;1.106;2022-12-16T16:45:17;99866.09;;;0.86;72.00
74960;BME280;63518;49.572;1.106;2022-12-16T16:48:12;99883.13;;;0.75;72.64
74960;BME280;63518;49.572;1.106;2022-12-16T16:51:00;99878.63;;;0.63;72.85
74960;BME280;63518;49.572;1.106;2022-12-16T16:53:48;99876.41;;;0.53;72.10
74960;BME280;63518;49.572;1.106;2022-12-16T16:56:37;99877.59;;;0.32;72.40
74960;BME280;63518;49.572;1.106;2022-12-16T16:59:23;99879.28;;;0.26;73.83
74960;BME280;63518;49.572;1.106;2022-12-16T17:02:16;99873.47;;;0.23;73.44
74960;BME280;63518;49.572;1.106;2022-12-16T17:05:08;99874.75;;;0.20;72.71
74960;BME280;63518;49.572;1.106;2022-12-16T17:08:02;99884.25;;;0.05;73.35
74960;BME280;63518;49.572;1.106;2022-12-16T17:10:48;99878.03;;;-0.03;73.17
74960;BME280;63518;49.572;1.106;2022-12-16T17:13:37;99869.13;;;-0.23;72.36
74960;BME280;63518;49.572;1.106;2022-12-16T17:16:25;99868.88;;;-0.15;72.68
74960;BME280;63518;49.572;1.106;2022-12-16T17:19:11;99871.22;;;-0.18;72.60
74960;BME280;63518;49.572;1.106;2022-12-16T17:21:57;99877.50;;;-0.24;71.70
74960;BME280;63518;49.572;1.106;2022-12-16T17:24:43;99887.91;;;-0.21;73.06
74960;BME280;63518;49.572;1.106;2022-12-16T17:27:41;99894.56;;;-0.17;71.98
74960;BME280;63518;49.572;1.106;2022-12-16T17:30:30;99890.47;;;-0.33;73.20
74960;BME280;63518;49.572;1.106;2022-12-16T17:33:16;99890.41;;;-0.20;73.67
74960;BME280;63518;49.572;1.106;2022-12-16T17:36:03;99887.38;;;-0.37;72.21
74960;BME280;63518;49.572;1.106;2022-12-16T17:38:57;99891.16;;;-0.44;72.79
74960;BME280;63518;49.572;1.106;2022-12-16T17:41:43;99889.69;;;-0.54;73.03
74960;BME280;63518;49.572;1.106;2022-12-16T17:44:38;99895.78;;;-0.58;72.95
74960;BME280;63518;49.572;1.106;2022-12-16T17:47:30;99903.47;;;-0.55;72.52
74960;BME280;63518;49.572;1.106;2022-12-16T17:50:33;99909.94;;;-0.56;72.21
74960;BME280;63518;49.572;1.106;2022-12-16T17:53:22;99914.72;;;-0.51;71.69
74960;BME280;63518;49.572;1.106;2022-12-16T17:56:08;99921.63;;;-0.62;73.02
74960;BME280;63518;49.572;1.106;2022-12-16T17:58:55;99925.22;;;-0.82;73.13
74960;BME280;63518;49.572;1.106;2022-12-16T18:01:48;99917.91;;;-0.88;73.58
74960;BME280;63518;49.572;1.106;2022-12-16T18:04:36;99897.28;;;-0.95;73.44
74960;BME280;63518;49.572;1.106;2022-12-16T18:07:22;99919.19;;;-0.97;72.67
74960;BME280;63518;49.572;1.106;2022-12-16T18:10:08;99909.81;;;-1.21;74.16
74960;BME280;63518;49.572;1.106;2022-12-16T18:12:54;99902.94;;;-1.43;75.95